Time;durP1;ratioP1;P1;durP2;ratioP2;P2;SDS_P1;SDS_P2;PMS_P1;PMS_P2;Temp;Humidity;BMP_temperature;BMP_pressure;BME280_temperature;BME280_humidity;BME280_pressure;Samples;Min_cycle;Max_cycle;Signal;HPM_P1;HPM_P2
2023/09/21 00:00:39;;;;;;;57.60;23.80;;;24.30;93.40;;;;;;5033059;28;20052;-66
2023/09/21 00:03:44;;;;;;;52.70;23.85;;;24.20;93.50;;;;;;5033136;28;20048;-67
2023/09/21 00:06:50;;;;;;;53.50;24.60;;;24.20;93.60;;;;;;5031863;28;20049;-68
2023/09/21 00:09:54;;;;;;;62.88;26.17;;;24.20;93.80;;;;;;5032508;28;20048;-67
2023/09/21 00:12:59;;;;;;;52.67;24.48;;;24.20;93.70;;;;;;5032580;28;20060;-67
2023/09/21 00:16:09;;;;;;;53.67;24.60;;;24.20;93.40;;;;;;5032522;28;20082;-67
2023/09/21 00:19:13;;;;;;;55.27;25.77;;;24.20;93.60;;;;;;5032528;28;20052;-67
2023/09/21 00:22:17;;;;;;;56.42;24.35;;;24.30;93.90;;;;;;5032739;28;20040;-67
2023/09/21 00:25:23;;;;;;;52.88;22.70;;;24.10;93.90;;;;;;5032649;28;20053;-67
2023/09/21 00:28:28;;;;;;;45.72;24.20;;;24.00;94.10;;;;;;5032503;28;20048;-68
2023/09/21 00:31:33;;;;;;;58.65;24.17;;;24.10;93.90;;;;;;5032487;28;20044;-67
2023/09/21 00:34:37;;;;;;;55.03;22.88;;;24.10;93.60;;;;;;5032120;28;20064;-67
2023/09/21 00:37:42;;;;;;;51.00;24.42;;;24.00;93.40;;;;;;5032297;28;20052;-68
2023/09/21 00:40:47;;;;;;;50.97;23.88;;;24.10;93.70;;;;;;5031626;28;20437;-68
2023/09/21 00:43:51;;;;;;;56.85;23.92;;;24.10;93.60;;;;;;5032451;28;20044;-68
2023/09/21 00:46:56;;;;;;;56.42;22.50;;;24.10;93.40;;;;;;5032343;28;20040;-68
2023/09/21 00:50:06;;;;;;;55.78;23.30;;;24.10;93.40;;;;;;5032234;28;20056;-67
2023/09/21 00:53:13;;;;;;;59.83;23.73;;;24.20;93.20;;;;;;5031987;28;20041;-68
2023/09/21 00:56:18;;;;;;;47.65;20.75;;;24.20;93.50;;;;;;5031153;28;20052;-68
2023/09/21 00:59:23;;;;;;;59.55;21.27;;;24.20;93.40;;;;;;5030908;28;20032;-68
2023/09/21 01:02:27;;;;;;;48.30;19.77;;;24.30;92.60;;;;;;5032080;28;20052;-68
2023/09/21 01:05:33;;;;;;;56.70;20.98;;;24.20;92.70;;;;;;5031171;28;20040;-67
2023/09/21 01:08:37;;;;;;;58.53;19.85;;;24.30;91.90;;;;;;5031921;28;20048;-67
2023/09/21 01:11:41;;;;;;;41.65;17.92;;;24.30;91.70;;;;;;5030925;28;20045;-69
2023/09/21 01:14:45;;;;;;;62.17;21.42;;;24.30;91.60;;;;;;5031043;28;20048;-68
2023/09/21 01:17:48;;;;;;;62.45;21.65;;;24.30;91.50;;;;;;5031267;28;20049;-68
2023/09/21 01:20:59;;;;;;;53.83;19.95;;;24.30;91.70;;;;;;5030724;28;20048;-68
2023/09/21 01:24:05;;;;;;;60.65;19.90;;;24.30;91.70;;;;;;5030958;28;20394;-69
2023/09/21 01:27:09;;;;;;;58.35;21.83;;;24.30;91.90;;;;;;5030851;28;20060;-68
2023/09/21 01:30:14;;;;;;;48.92;21.70;;;24.30;92.10;;;;;;5031473;28;20048;-67
2023/09/21 01:33:18;;;;;;;65.47;21.30;;;23.20;91.80;;;;;;5031244;28;20048;-67
2023/09/21 01:36:23;;;;;;;72.95;23.13;;;24.30;92.10;;;;;;5031056;28;20426;-68
2023/09/21 01:39:27;;;;;;;57.60;21.60;;;24.30;92.10;;;;;;5031194;28;20048;-67
2023/09/21 01:42:31;;;;;;;70.93;23.00;;;24.30;91.90;;;;;;5030147;28;20052;-68
2023/09/21 01:45:37;;;;;;;65.80;23.10;;;24.30;92.20;;;;;;5030568;28;20231;-68
2023/09/21 01:48:41;;;;;;;62.70;23.23;;;24.30;92.40;;;;;;5030867;28;20052;-68
2023/09/21 01:51:46;;;;;;;60.65;22.92;;;24.30;92.70;;;;;;5031006;28;20049;-69
2023/09/21 01:54:49;;;;;;;68.13;22.98;;;24.30;92.90;;;;;;5031154;28;20044;-68
2023/09/21 01:57:53;;;;;;;47.08;20.92;;;24.30;92.80;;;;;;5031313;28;20060;-67
2023/09/21 02:00:57;;;;;;;59.53;24.98;;;24.30;92.80;;;;;;5030303;28;20065;-67
2023/09/21 02:04:01;;;;;;;60.83;22.10;;;24.30;92.70;;;;;;5031002;28;20049;-67
2023/09/21 02:07:05;;;;;;;52.85;22.13;;;24.00;92.70;;;;;;5030173;28;20044;-67
2023/09/21 02:10:10;;;;;;;59.85;22.15;;;23.40;92.40;;;;;;5029978;28;20049;-67
2023/09/21 02:13:14;;;;;;;49.67;22.65;;;24.30;92.90;;;;;;5030672;28;20044;-67
2023/09/21 02:16:20;;;;;;;52.30;21.73;;;24.30;93.00;;;;;;5030809;28;20044;-67
2023/09/21 02:19:24;;;;;;;62.50;24.50;;;24.30;92.90;;;;;;5030505;28;20040;-67
2023/09/21 02:22:28;;;;;;;53.58;23.70;;;24.30;93.10;;;;;;5030679;28;20052;-67
2023/09/21 02:25:40;;;;;;;58.90;23.30;;;24.30;93.00;;;;;;5030917;28;20045;-67
2023/09/21 02:28:44;;;;;;;54.22;24.30;;;24.30;93.20;;;;;;5030600;28;20515;-67
2023/09/21 02:31:48;;;;;;;49.95;22.55;;;24.30;93.20;;;;;;5034614;28;20060;-67
2023/09/21 02:34:52;;;;;;;64.40;24.75;;;24.30;93.20;;;;;;5033723;28;20397;-68
2023/09/21 02:37:57;;;;;;;51.42;23.35;;;24.30;93.30;;;;;;5035057;28;20072;-68
2023/09/21 02:41:01;;;;;;;64.57;25.35;;;24.20;93.30;;;;;;5033696;28;20036;-68
2023/09/21 02:44:06;;;;;;;49.05;25.55;;;24.20;93.30;;;;;;5033718;28;20393;-68
2023/09/21 02:47:10;;;;;;;50.20;23.75;;;24.10;93.60;;;;;;5034687;28;20053;-68
2023/09/21 02:50:15;;;;;;;52.35;23.45;;;24.20;93.50;;;;;;5033239;28;20040;-67
2023/09/21 02:53:20;;;;;;;54.78;23.58;;;24.20;93.50;;;;;;5034016;28;20044;-67
2023/09/21 02:56:24;;;;;;;53.20;22.73;;;24.30;93.80;;;;;;5022195;28;20053;-68
2023/09/21 02:59:28;;;;;;;51.58;24.10;;;24.30;93.80;;;;;;5033331;28;20480;-67
2023/09/21 03:02:33;;;;;;;52.53;24.25;;;24.30;93.60;;;;;;5033519;28;20052;-67
2023/09/21 03:05:39;;;;;;;46.42;20.35;;;24.40;93.50;;;;;;5033397;28;20045;-68
2023/09/21 03:08:45;;;;;;;61.55;24.17;;;24.30;93.20;;;;;;5034052;28;20045;-67
2023/09/21 03:11:49;;;;;;;60.72;25.05;;;24.30;93.40;;;;;;5033295;28;20045;-67
2023/09/21 03:14:53;;;;;;;63.40;25.85;;;24.30;93.50;;;;;;5033396;28;20053;-67
2023/09/21 03:17:57;;;;;;;58.45;26.40;;;24.30;93.60;;;;;;5033170;28;20413;-67
2023/09/21 03:21:10;;;;;;;56.40;22.83;;;24.20;93.70;;;;;;5033122;28;20397;-67
2023/09/21 03:24:13;;;;;;;63.85;24.70;;;24.20;93.60;;;;;;5033372;28;20061;-68
2023/09/21 03:27:19;;;;;;;72.95;25.40;;;24.10;93.50;;;;;;5033860;28;20048;-66
2023/09/21 03:30:24;;;;;;;71.22;20.98;;;24.20;93.80;;;;;;5032723;28;20415;-67
2023/09/21 03:33:31;;;;;;;43.63;11.93;;;24.20;95.90;;;;;;5033046;28;20060;-67
2023/09/21 03:36:38;;;;;;;45.40;11.63;;;24.20;97.10;;;;;;5032939;28;20049;-67
2023/09/21 03:39:42;;;;;;;31.70;10.15;;;24.10;97.60;;;;;;5033093;28;20045;-68
2023/09/21 03:42:46;;;;;;;25.27;9.10;;;24.00;97.90;;;;;;5044565;28;20409;-69
2023/09/21 03:45:50;;;;;;;22.02;8.02;;;23.80;98.20;;;;;;5032538;28;20053;-68
2023/09/21 03:48:55;;;;;;;18.67;8.00;;;23.70;98.80;;;;;;5021436;28;20047;-67
2023/09/21 03:52:00;;;;;;;20.40;5.97;;;23.70;98.90;;;;;;5032616;28;20049;-67
2023/09/21 03:55:04;;;;;;;17.02;5.25;;;23.50;98.90;;;;;;5032613;28;20504;-68
2023/09/21 03:58:08;;;;;;;14.90;5.15;;;23.30;97.90;;;;;;5032554;28;20052;-69
2023/09/21 04:01:13;;;;;;;17.70;5.07;;;23.30;98.00;;;;;;5032495;28;20048;-68
2023/09/21 04:04:18;;;;;;;15.02;5.20;;;23.30;98.10;;;;;;5032180;28;20041;-68
2023/09/21 04:07:22;;;;;;;14.55;5.57;;;22.80;98.40;;;;;;5032328;28;20405;-68
2023/09/21 04:10:26;;;;;;;15.18;5.22;;;22.70;99.00;;;;;;5032158;28;20060;-68
2023/09/21 04:13:31;;;;;;;16.25;5.68;;;22.40;99.70;;;;;;5033047;28;20049;-66
2023/09/21 04:16:35;;;;;;;21.85;6.93;;;22.40;99.90;;;;;;5032081;28;20064;-68
2023/09/21 04:19:39;;;;;;;28.70;9.85;;;22.30;99.90;;;;;;5031887;28;20492;-67
2023/09/21 04:22:43;;;;;;;36.65;13.77;;;22.30;99.90;;;;;;5032173;28;20048;-68
2023/09/21 04:25:48;;;;;;;30.63;13.38;;;22.10;99.90;;;;;;5032132;28;20044;-67
2023/09/21 04:28:52;;;;;;;43.65;18.83;;;22.00;99.90;;;;;;5032822;28;20393;-67
2023/09/21 04:31:57;;;;;;;48.33;20.88;;;21.80;99.90;;;;;;5031899;28;20044;-68
2023/09/21 04:35:03;;;;;;;43.13;21.10;;;21.70;99.90;;;;;;5031473;28;20057;-66
2023/09/21 04:38:08;;;;;;;49.08;22.52;;;21.50;99.90;;;;;;5031685;28;20060;-68
2023/09/21 04:41:14;;;;;;;43.60;20.30;;;21.60;99.90;;;;;;5031595;28;20045;-68
2023/09/21 04:44:20;;;;;;;36.67;19.42;;;21.50;99.90;;;;;;5031696;28;20662;-67
2023/09/21 04:47:27;;;;;;;42.05;19.73;;;21.70;99.90;;;;;;5031561;28;20045;-68
2023/09/21 04:50:33;;;;;;;38.22;18.95;;;21.90;99.90;;;;;;5031053;28;20044;-67
2023/09/21 04:53:38;;;;;;;34.78;17.13;;;22.00;99.90;;;;;;5031914;28;20044;-67
2023/09/21 04:56:42;;;;;;;40.67;15.45;;;22.10;99.90;;;;;;5031144;28;20056;-67
2023/09/21 04:59:46;;;;;;;28.95;12.05;;;22.20;99.90;;;;;;5031979;28;20060;-68
2023/09/21 05:02:50;;;;;;;21.33;9.80;;;22.20;99.90;;;;;;5031183;28;20052;-68
2023/09/21 05:05:58;;;;;;;15.65;8.35;;;22.00;99.90;;;;;;5030914;28;20501;-68
2023/09/21 05:09:02;;;;;;;23.90;8.80;;;22.00;99.90;;;;;;5031103;28;20389;-69
2023/09/21 05:12:06;;;;;;;19.92;7.05;;;21.80;99.90;;;;;;5031005;28;20049;-68
2023/09/21 05:15:14;;;;;;;13.88;6.28;;;21.90;99.90;;;;;;5031135;28;20056;-68
2023/09/21 05:18:18;;;;;;;12.80;6.78;;;21.80;99.90;;;;;;5031528;28;20107;-68
2023/09/21 05:21:22;;;;;;;14.63;5.47;;;21.90;99.90;;;;;;5031645;28;20044;-67
2023/09/21 05:24:26;;;;;;;23.48;6.20;;;21.90;99.90;;;;;;5031764;28;20052;-68
2023/09/21 05:27:30;;;;;;;14.45;6.18;;;21.90;99.90;;;;;;5031468;28;20493;-67
2023/09/21 05:30:35;;;;;;;17.15;6.78;;;21.90;99.90;;;;;;5030866;28;20053;-68
2023/09/21 05:33:38;;;;;;;17.48;6.28;;;21.90;99.90;;;;;;5031236;28;20052;-68
2023/09/21 05:36:47;;;;;;;15.00;5.60;;;21.90;99.90;;;;;;5031046;28;20052;-69
2023/09/21 05:39:51;;;;;;;13.60;6.28;;;21.80;99.90;;;;;;5030122;28;20044;-70
2023/09/21 05:42:55;;;;;;;14.80;6.03;;;21.80;99.90;;;;;;5031412;28;20048;-69
2023/09/21 05:46:00;;;;;;;14.52;6.30;;;21.80;99.90;;;;;;5031191;28;20044;-70
2023/09/21 05:49:03;;;;;;;14.30;6.10;;;21.80;99.90;;;;;;5031051;28;20044;-69
2023/09/21 05:52:13;;;;;;;16.00;6.53;;;21.70;99.90;;;;;;5030995;28;20505;-67
2023/09/21 05:55:17;;;;;;;11.98;6.20;;;21.70;99.90;;;;;;5031248;28;20051;-72
2023/09/21 05:58:21;;;;;;;16.30;5.95;;;21.70;99.90;;;;;;5030193;28;20044;-69
2023/09/21 06:01:25;;;;;;;15.63;7.05;;;21.60;99.90;;;;;;5030958;28;20044;-68
2023/09/21 06:04:30;;;;;;;11.15;5.68;;;21.70;99.90;;;;;;5030087;28;20053;-69
2023/09/21 06:07:35;;;;;;;15.50;5.63;;;21.70;99.90;;;;;;5030899;28;20052;-69
2023/09/21 06:10:39;;;;;;;9.13;5.70;;;21.60;99.90;;;;;;5030217;28;20048;-68
2023/09/21 06:13:43;;;;;;;10.95;5.07;;;21.50;99.90;;;;;;5030586;28;20056;-70
2023/09/21 06:16:47;;;;;;;15.02;5.10;;;21.40;99.90;;;;;;5030511;28;20064;-70
2023/09/21 06:19:53;;;;;;;12.73;4.40;;;21.40;99.90;;;;;;5030629;28;20040;-71
2023/09/21 06:22:57;;;;;;;14.98;5.70;;;21.50;99.90;;;;;;5030471;28;20060;-70
2023/09/21 06:26:01;;;;;;;9.60;3.88;;;21.50;99.90;;;;;;5030191;28;20600;-69
2023/09/21 06:29:05;;;;;;;12.48;5.00;;;21.60;99.90;;;;;;5028783;28;20106;-68
2023/09/21 06:32:10;;;;;;;7.53;4.45;;;21.70;99.90;;;;;;5027835;28;20044;-67
2023/09/21 06:35:14;;;;;;;7.63;3.70;;;21.70;99.90;;;;;;5030419;28;20057;-68
2023/09/21 06:38:20;;;;;;;11.35;3.80;;;21.40;99.90;;;;;;5029506;28;20053;-70
2023/09/21 06:41:25;;;;;;;15.52;4.18;;;21.40;99.90;;;;;;5030567;28;20045;-70
2023/09/21 06:44:29;;;;;;;9.77;3.60;;;21.50;99.90;;;;;;5030562;28;20048;-69
2023/09/21 06:47:33;;;;;;;12.70;5.28;;;21.50;99.90;;;;;;5030530;28;20056;-68
2023/09/21 06:50:40;;;;;;;12.02;4.93;;;21.50;99.90;;;;;;5030466;28;20064;-67
2023/09/21 06:53:44;;;;;;;13.35;3.97;;;21.60;99.90;;;;;;5030521;28;20048;-68
2023/09/21 06:56:49;;;;;;;8.63;3.00;;;21.80;99.90;;;;;;5030347;28;20413;-67
2023/09/21 06:59:53;;;;;;;10.30;3.45;;;21.90;99.90;;;;;;5030358;28;20151;-68
2023/09/21 07:02:58;;;;;;;11.98;3.33;;;22.00;99.90;;;;;;5018095;28;20048;-68
2023/09/21 07:06:02;;;;;;;7.78;3.45;;;22.00;99.90;;;;;;5029410;28;20049;-68
2023/09/21 07:09:06;;;;;;;8.77;3.50;;;22.00;99.90;;;;;;5030068;28;20048;-69
2023/09/21 07:12:11;;;;;;;7.18;2.70;;;21.20;99.90;;;;;;5030114;28;20048;-70
2023/09/21 07:15:15;;;;;;;10.27;3.10;;;22.40;99.90;;;;;;5030036;28;20489;-69
2023/09/21 07:18:20;;;;;;;9.95;3.03;;;22.60;99.90;;;;;;5033905;28;20513;-68
2023/09/21 07:21:27;;;;;;;13.98;2.80;;;22.60;99.50;;;;;;5033717;28;20056;-68
2023/09/21 07:24:31;;;;;;;8.82;2.53;;;22.70;99.70;;;;;;5033642;28;20040;-68
2023/09/21 07:27:35;;;;;;;8.27;3.03;;;22.70;99.80;;;;;;5033688;28;20056;-69
2023/09/21 07:30:39;;;;;;;9.70;2.58;;;23.50;99.30;;;;;;5033596;28;20040;-67
2023/09/21 07:33:46;;;;;;;8.93;2.63;;;23.40;98.80;;;;;;5033583;28;20389;-68
2023/09/21 07:36:50;;;;;;;9.73;2.80;;;23.90;98.30;;;;;;5033227;28;20057;-69
2023/09/21 07:39:54;;;;;;;11.48;3.42;;;23.80;98.10;;;;;;5033353;28;20041;-70
2023/09/21 07:42:59;;;;;;;11.05;3.08;;;23.60;98.70;;;;;;5032626;28;20052;-70
2023/09/21 07:46:03;;;;;;;8.93;2.75;;;21.90;98.70;;;;;;5033170;28;20046;-69
2023/09/21 07:49:07;;;;;;;9.75;2.85;;;23.40;98.50;;;;;;5033398;28;20052;-70
2023/09/21 07:52:10;;;;;;;5.88;2.15;;;23.20;98.60;;;;;;5033493;28;20060;-69
2023/09/21 07:55:14;;;;;;;9.15;2.90;;;23.00;98.50;;;;;;5032951;28;20048;-69
2023/09/21 07:58:22;;;;;;;7.60;2.60;;;23.10;98.70;;;;;;5033161;28;20507;-68
2023/09/21 08:01:27;;;;;;;8.93;2.75;;;23.10;98.80;;;;;;5033349;28;20036;-68
2023/09/21 08:04:31;;;;;;;14.63;2.85;;;23.10;98.20;;;;;;5033183;28;20048;-70
2023/09/21 08:07:35;;;;;;;7.40;2.63;;;23.20;98.30;;;;;;5032947;28;20052;-70
2023/09/21 08:10:40;;;;;;;6.93;2.35;;;23.60;97.30;;;;;;5033187;28;20052;-71
2023/09/21 08:13:44;;;;;;;8.00;2.60;;;23.60;97.50;;;;;;5032323;28;20041;-68
2023/09/21 08:16:49;;;;;;;9.23;2.22;;;24.30;96.60;;;;;;5032772;28;20401;-70
2023/09/21 08:19:53;;;;;;;5.22;2.30;;;24.30;96.60;;;;;;5032724;28;20045;-69
2023/09/21 08:22:56;;;;;;;8.57;2.83;;;24.60;96.30;;;;;;5032793;28;20120;-68
2023/09/21 08:26:02;;;;;;;8.40;2.00;;;25.00;95.80;;;;;;5032404;28;20041;-69
2023/09/21 08:29:07;;;;;;;8.70;1.90;;;25.30;94.60;;;;;;5031860;28;20045;-69
2023/09/21 08:32:12;;;;;;;4.22;1.75;;;25.40;93.60;;;;;;5032123;28;20045;-69
2023/09/21 08:35:16;;;;;;;10.07;2.53;;;25.90;93.40;;;;;;5032179;28;20441;-69
2023/09/21 08:38:20;;;;;;;15.60;2.60;;;26.10;91.30;;;;;;5032224;28;20053;-69
2023/09/21 08:41:27;;;;;;;6.22;2.10;;;26.10;91.40;;;;;;5032051;28;20609;-69
2023/09/21 08:44:32;;;;;;;7.45;1.90;;;26.40;90.90;;;;;;5032203;28;20048;-69
2023/09/21 08:47:39;;;;;;;5.93;1.60;;;26.70;88.40;;;;;;5032070;28;20790;-70
2023/09/21 08:50:44;;;;;;;8.52;2.03;;;26.70;89.50;;;;;;5031951;28;20052;-69
2023/09/21 08:53:51;;;;;;;4.43;2.00;;;26.80;90.60;;;;;;5032081;28;20048;-69
2023/09/21 08:56:55;;;;;;;9.38;1.80;;;26.90;89.60;;;;;;5031727;28;20056;-73
2023/09/21 09:00:11;;;;;;;7.90;2.25;;;27.00;87.50;;;;;;5030906;28;20385;-70
2023/09/21 09:03:19;;;;;;;8.88;2.05;;;27.10;87.60;;;;;;5032046;28;20049;-69
2023/09/21 09:06:24;;;;;;;11.25;2.17;;;27.20;87.30;;;;;;5031667;28;20056;-69
2023/09/21 09:09:28;;;;;;;6.10;2.08;;;27.30;87.20;;;;;;5031861;28;20049;-73
2023/09/21 09:12:32;;;;;;;9.00;2.10;;;27.30;85.00;;;;;;5031489;28;20048;-69
2023/09/21 09:15:38;;;;;;;7.15;2.22;;;27.40;84.70;;;;;;5031575;28;20247;-70
2023/09/21 09:18:44;;;;;;;16.23;2.38;;;27.40;85.20;;;;;;5031363;28;20052;-69
2023/09/21 09:21:50;;;;;;;7.10;1.92;;;27.50;84.80;;;;;;5031496;28;20048;-69
2023/09/21 09:24:55;;;;;;;10.20;2.33;;;27.60;81.50;;;;;;5030857;28;20052;-70
2023/09/21 09:28:02;;;;;;;8.27;2.20;;;27.80;78.00;;;;;;5031278;28;20053;-69
2023/09/21 09:31:10;;;;;;;6.50;1.60;;;27.90;78.90;;;;;;5030366;28;20053;-69
2023/09/21 09:34:17;;;;;;;7.47;2.10;;;28.20;78.80;;;;;;5031156;28;20469;-68
2023/09/21 09:37:21;;;;;;;4.57;2.03;;;28.20;76.90;;;;;;5031069;28;20060;-68
2023/09/21 09:40:26;;;;;;;7.65;2.05;;;28.20;78.10;;;;;;5031461;28;20048;-69
2023/09/21 09:43:31;;;;;;;5.07;1.40;;;28.20;78.40;;;;;;5031292;28;20076;-68
2023/09/21 09:46:37;;;;;;;8.48;1.75;;;28.20;78.20;;;;;;5031382;28;20147;-69
2023/09/21 09:49:45;;;;;;;7.47;1.83;;;28.20;77.40;;;;;;5030885;28;20064;-69
2023/09/21 09:53:17;;;;;;;6.55;1.90;;;28.10;77.50;;;;;;5030994;28;20045;-68
2023/09/21 09:56:22;;;;;;;6.28;2.08;;;28.10;80.20;;;;;;5030700;28;20045;-69
2023/09/21 09:59:28;;;;;;;8.48;2.13;;;28.00;82.20;;;;;;5031035;28;20052;-68
2023/09/21 10:02:32;;;;;;;7.50;2.13;;;27.90;82.90;;;;;;5031084;28;20044;-67
2023/09/21 10:05:37;;;;;;;4.25;1.92;;;28.00;83.20;;;;;;5030147;28;20056;-69
2023/09/21 10:08:41;;;;;;;6.47;1.75;;;28.10;83.70;;;;;;5030617;28;20041;-69
2023/09/21 10:11:50;;;;;;;5.82;1.92;;;28.20;83.40;;;;;;5030721;28;20060;-69
2023/09/21 10:14:54;;;;;;;6.60;2.20;;;28.10;82.90;;;;;;5029971;28;20048;-69
2023/09/21 10:17:58;;;;;;;7.38;2.70;;;28.10;81.80;;;;;;5030403;28;20056;-68
2023/09/21 10:21:23;;;;;;;7.60;2.35;;;28.00;81.60;;;;;;5030656;28;20044;-68
2023/09/21 10:24:32;;;;;;;8.88;2.53;;;27.90;82.00;;;;;;5030798;28;20068;-67
2023/09/21 10:27:38;;;;;;;8.93;2.72;;;27.90;81.10;;;;;;5030842;28;20048;-69
2023/09/21 10:30:43;;;;;;;6.60;2.42;;;28.00;82.70;;;;;;5030760;28;20052;-68
2023/09/21 10:33:51;;;;;;;5.75;2.60;;;28.00;82.80;;;;;;5030472;28;20048;-67
2023/09/21 10:37:06;;;;;;;6.90;3.45;;;28.00;82.10;;;;;;5030702;28;20049;-68
2023/09/21 10:40:20;;;;;;;10.43;2.80;;;28.00;81.70;;;;;;5030665;28;20048;-69
2023/09/21 10:43:36;;;;;;;12.02;3.08;;;28.00;81.90;;;;;;5030754;28;20048;-69
2023/09/21 10:46:42;;;;;;;9.80;2.60;;;28.00;80.80;;;;;;5030379;28;20041;-71
2023/09/21 10:49:48;;;;;;;9.57;3.53;;;28.00;81.00;;;;;;5030333;28;20048;-68
2023/09/21 10:52:57;;;;;;;9.57;3.33;;;28.20;82.80;;;;;;5034549;28;20049;-69
2023/09/21 10:56:01;;;;;;;8.07;2.97;;;28.20;83.10;;;;;;5034400;28;20381;-70
2023/09/21 10:59:07;;;;;;;6.25;2.58;;;28.30;83.50;;;;;;5035003;28;20068;-70
2023/09/21 11:02:11;;;;;;;10.88;2.78;;;28.30;83.80;;;;;;5033979;28;20041;-69
2023/09/21 11:05:17;;;;;;;7.13;3.10;;;28.40;82.10;;;;;;5032390;28;20048;-70
2023/09/21 11:08:24;;;;;;;12.98;2.75;;;28.40;80.10;;;;;;5034075;28;20504;-70
2023/09/21 11:11:28;;;;;;;6.10;2.60;;;28.40;79.80;;;;;;5034034;28;20044;-69
2023/09/21 11:14:32;;;;;;;6.90;2.90;;;28.30;80.00;;;;;;5034142;28;20048;-70
2023/09/21 11:17:36;;;;;;;6.63;2.17;;;28.30;79.70;;;;;;5033524;28;20052;-69
2023/09/21 11:20:41;;;;;;;7.80;2.35;;;28.20;80.00;;;;;;5033561;28;20041;-70
2023/09/21 11:23:50;;;;;;;7.82;2.35;;;28.30;80.40;;;;;;5033819;28;20413;-69
2023/09/21 11:26:54;;;;;;;10.05;2.95;;;28.40;79.80;;;;;;5033709;28;20044;-70
2023/09/21 11:29:58;;;;;;;8.23;2.88;;;28.40;78.60;;;;;;5033773;28;20405;-70
2023/09/21 11:33:02;;;;;;;11.25;2.92;;;28.50;78.70;;;;;;5032764;28;20072;-69
2023/09/21 11:36:09;;;;;;;8.75;2.53;;;28.60;79.00;;;;;;5031304;28;20065;-71
2023/09/21 11:39:14;;;;;;;10.18;2.50;;;28.60;79.40;;;;;;5031553;28;20048;-71
2023/09/21 11:42:19;;;;;;;7.78;2.92;;;28.70;78.00;;;;;;5032395;28;20036;-71
2023/09/21 11:45:24;;;;;;;7.18;2.55;;;28.80;78.20;;;;;;5032792;28;20044;-73
2023/09/21 11:48:29;;;;;;;10.48;3.30;;;28.80;79.40;;;;;;5032863;28;20061;-70
2023/09/21 11:51:33;;;;;;;9.15;2.60;;;28.80;78.50;;;;;;5033115;28;20040;-71
2023/09/21 11:54:39;;;;;;;9.18;2.80;;;28.80;78.60;;;;;;5033369;28;20064;-71
2023/09/21 11:57:43;;;;;;;9.38;2.78;;;28.80;79.00;;;;;;5031432;28;20052;-70
2023/09/21 12:03:52;;;;;;;12.63;3.10;;;30.40;75.90;;;;;;5031163;28;20048;-70
2023/09/21 12:06:57;;;;;;;12.20;3.05;;;31.80;73.00;;;;;;5032002;28;20048;-71
2023/09/21 12:10:01;;;;;;;14.20;2.95;;;32.70;70.80;;;;;;5031657;28;20061;-70
2023/09/21 12:13:04;;;;;;;12.50;3.50;;;33.20;69.90;;;;;;5032964;28;20059;-70
2023/09/21 12:16:09;;;;;;;14.32;3.05;;;33.40;69.10;;;;;;5032866;28;20041;-69
2023/09/21 12:19:12;;;;;;;13.93;3.17;;;32.90;70.00;;;;;;5032765;28;20044;-68
2023/09/21 12:22:16;;;;;;;13.30;3.40;;;32.10;71.70;;;;;;5032877;28;20589;-71
2023/09/21 12:25:20;;;;;;;9.88;3.13;;;31.30;72.90;;;;;;5032382;28;20045;-69
2023/09/21 12:28:24;;;;;;;14.55;3.00;;;30.60;73.10;;;;;;5032470;28;20044;-71
2023/09/21 12:31:29;;;;;;;13.95;3.78;;;30.20;74.60;;;;;;5032628;28;20048;-71
2023/09/21 12:34:34;;;;;;;14.05;3.97;;;29.90;76.30;;;;;;5032098;28;20060;-69
2023/09/21 12:37:42;;;;;;;12.45;3.30;;;30.00;76.40;;;;;;5031887;28;20631;-69
2023/09/21 12:40:47;;;;;;;13.57;2.88;;;31.10;75.40;;;;;;5032068;28;20044;-68
2023/09/21 12:43:51;;;;;;;14.45;3.08;;;32.10;72.00;;;;;;5032143;28;20504;-69
2023/09/21 12:46:55;;;;;;;14.88;3.20;;;32.90;70.20;;;;;;5032295;28;20481;-68
2023/09/21 12:50:00;;;;;;;9.48;2.88;;;33.20;70.40;;;;;;5031857;28;20044;-69
2023/09/21 12:53:10;;;;;;;11.48;3.35;;;33.30;69.30;;;;;;5031883;28;20048;-68
2023/09/21 12:56:14;;;;;;;11.40;3.28;;;33.40;68.90;;;;;;5031797;28;20048;-70
2023/09/21 12:59:18;;;;;;;13.15;3.00;;;33.70;70.30;;;;;;5031958;28;20048;-68
2023/09/21 13:02:25;;;;;;;22.50;4.00;;;33.80;69.20;;;;;;5031655;28;20040;-70
2023/09/21 13:05:30;;;;;;;18.98;3.40;;;33.90;68.60;;;;;;5031965;28;20089;-68
2023/09/21 13:08:34;;;;;;;16.08;3.90;;;34.00;68.40;;;;;;5031674;28;20052;-68
2023/09/21 13:11:40;;;;;;;13.55;3.38;;;34.10;67.60;;;;;;5031772;28;20052;-69
2023/09/21 13:14:44;;;;;;;11.25;2.90;;;34.00;68.00;;;;;;5031126;28;20045;-68
2023/09/21 13:17:49;;;;;;;12.38;2.85;;;33.80;67.80;;;;;;5031445;28;20060;-70
2023/09/21 13:20:53;;;;;;;15.90;3.50;;;33.80;67.90;;;;;;5031784;28;20053;-69
2023/09/21 13:23:57;;;;;;;13.57;3.30;;;34.00;68.60;;;;;;5031551;28;20056;-69
2023/09/21 13:27:03;;;;;;;15.48;3.00;;;33.50;69.20;;;;;;5031666;28;20049;-70
2023/09/21 13:30:09;;;;;;;11.38;2.92;;;32.60;70.30;;;;;;5031573;28;20048;-69
2023/09/21 13:33:13;;;;;;;19.02;4.68;;;31.90;71.80;;;;;;5031616;28;20429;-69
2023/09/21 13:36:17;;;;;;;13.80;3.15;;;31.30;73.10;;;;;;5031040;28;20060;-69
2023/09/21 13:39:23;;;;;;;16.13;3.97;;;30.90;72.70;;;;;;5031103;28;20060;-71
2023/09/21 13:42:26;;;;;;;14.25;3.13;;;30.60;73.90;;;;;;5031530;28;20044;-70
2023/09/21 13:45:30;;;;;;;16.88;4.63;;;30.40;74.20;;;;;;5031235;28;20057;-70
2023/09/21 13:48:35;;;;;;;11.57;3.65;;;30.20;74.20;;;;;;5030802;28;20043;-70
2023/09/21 13:51:40;;;;;;;19.83;4.18;;;30.10;74.50;;;;;;5030813;28;20060;-70
2023/09/21 13:54:44;;;;;;;11.23;3.35;;;30.10;75.10;;;;;;5031171;28;20052;-70
2023/09/21 13:57:48;;;;;;;15.00;3.25;;;30.00;74.90;;;;;;5030837;28;20060;-70
2023/09/21 14:00:52;;;;;;;17.17;3.63;;;29.90;75.10;;;;;;5030919;28;20508;-70
2023/09/21 14:03:57;;;;;;;10.02;3.20;;;29.90;75.70;;;;;;5030683;28;20636;-70
2023/09/21 14:07:01;;;;;;;15.00;3.20;;;29.80;75.00;;;;;;5030927;28;20045;-70
2023/09/21 14:10:06;;;;;;;10.88;3.50;;;29.80;75.20;;;;;;5030693;28;20523;-69
2023/09/21 14:13:12;;;;;;;18.77;3.85;;;29.80;75.70;;;;;;5030691;28;20044;-70
2023/09/21 14:16:16;;;;;;;12.50;3.35;;;29.70;75.30;;;;;;5030616;28;20052;-70
2023/09/21 14:19:20;;;;;;;23.77;3.92;;;29.70;75.00;;;;;;5030514;28;20052;-68
2023/09/21 14:22:24;;;;;;;13.82;3.55;;;29.60;75.10;;;;;;5030859;28;20036;-69
2023/09/21 14:25:48;;;;;;;13.43;3.75;;;29.60;75.80;;;;;;5032514;28;20064;-69
2023/09/21 14:28:52;;;;;;;10.65;3.45;;;29.50;76.00;;;;;;5034473;28;20052;-69
2023/09/21 14:31:56;;;;;;;10.65;3.63;;;29.50;75.60;;;;;;5033803;28;20053;-69
2023/09/21 14:35:04;;;;;;;15.75;3.58;;;29.50;75.40;;;;;;5034247;28;20520;-68
2023/09/21 14:38:07;;;;;;;16.90;3.88;;;29.50;75.70;;;;;;5034556;28;20060;-68
2023/09/21 14:41:14;;;;;;;12.80;3.60;;;29.40;76.10;;;;;;5034751;28;20044;-69
2023/09/21 14:44:19;;;;;;;18.55;4.05;;;29.40;75.70;;;;;;5034590;28;20044;-70
2023/09/21 14:47:23;;;;;;;16.35;3.90;;;29.40;75.00;;;;;;5033981;28;20040;-69
2023/09/21 14:50:27;;;;;;;13.20;3.33;;;29.40;75.30;;;;;;5034498;28;20044;-69
2023/09/21 14:53:31;;;;;;;12.98;3.78;;;29.40;75.50;;;;;;5033433;28;20049;-69
2023/09/21 14:56:36;;;;;;;16.00;3.97;;;29.40;75.60;;;;;;5034301;28;20049;-69
2023/09/21 14:59:43;;;;;;;13.70;3.78;;;29.40;75.30;;;;;;5034386;28;20056;-68
2023/09/21 15:02:54;;;;;;;18.33;4.25;;;29.40;75.60;;;;;;5034374;28;20068;-67
2023/09/21 15:05:58;;;;;;;26.77;5.17;;;29.40;76.50;;;;;;5033478;28;20057;-68
2023/09/21 15:09:04;;;;;;;13.45;4.90;;;29.30;76.20;;;;;;5033933;28;20045;-69
2023/09/21 15:12:08;;;;;;;9.88;3.42;;;29.30;76.10;;;;;;5034170;28;20055;-68
2023/09/21 15:15:13;;;;;;;21.45;5.55;;;29.30;76.30;;;;;;5034133;28;20060;-71
2023/09/21 15:18:16;;;;;;;29.50;6.47;;;29.20;75.90;;;;;;5032195;28;20060;-70
2023/09/21 15:21:20;;;;;;;22.67;5.05;;;29.20;74.80;;;;;;5033058;28;20507;-68
2023/09/21 15:24:25;;;;;;;15.50;3.80;;;29.20;74.90;;;;;;5033164;28;20050;-68
2023/09/21 15:27:30;;;;;;;22.83;5.90;;;29.20;75.10;;;;;;5032750;28;20044;-68
2023/09/21 15:30:37;;;;;;;14.45;4.35;;;29.20;75.40;;;;;;5033296;28;20044;-69
2023/09/21 15:33:41;;;;;;;21.92;5.50;;;29.20;75.70;;;;;;5033654;28;20504;-69
2023/09/21 15:36:45;;;;;;;28.60;6.38;;;29.20;76.10;;;;;;5033287;28;20052;-69
2023/09/21 15:39:49;;;;;;;22.98;5.47;;;29.10;75.30;;;;;;5033577;28;20056;-69
2023/09/21 15:42:54;;;;;;;19.38;6.05;;;29.00;75.10;;;;;;5033553;28;20049;-68
2023/09/21 15:45:58;;;;;;;14.60;4.97;;;29.00;75.00;;;;;;5033507;28;20056;-74
2023/09/21 15:49:04;;;;;;;18.25;4.95;;;29.00;75.00;;;;;;5033352;28;20048;-77
2023/09/21 15:52:08;;;;;;;13.40;4.45;;;29.00;75.00;;;;;;5033187;28;20504;-72